Startpagina
METAR-TAF:

METAR-TAF

Vliegvelden :

London Southend Airport

Londen-Southend, Engeland

breedte: 51-34N, lengte: 000-42E, hoogte: 15 m

Actueel weer

Dit bericht is 51 minuten geleden gemaakt, om 03:20 UTC
Wind 3 kt uit het noorden
Temperatuur 10°C
Vochtigheid 93%
Druk 1021 hPa
Zicht 10 km of meer
geen wolken onder 1500 m en geen cumulonimbus

METAR: EGMC 020320Z 35003KT CAVOK 10/09 Q1021

Tijdstip: 05:11 (04:11 UTC)

Verwachting

Dit bericht is 2 uur en het 3 minuten geleden gemaakt, om 02:08 UTC
Verwachting geldig van 02 om 03 UTC tot 02 om 12 UTC
Wind 6 kt uit het noordnoordwesten
Zicht 10 km of meer
geen wolken onder 1500 m en geen cumulonimbus

TAF: EGMC 020208Z 0203/0212 34006KT CAVOK

Waarnemingen en weersverwachtingen van meer dan 4000 vliegvelden (METAR en TAF).

De beschikbare stations zijn de gele en rode punten op de kaart.

Ga met uw muis naar het station om de naam te zien.

Klik dan om waarnemingen en weersverwachtingen te zien.

kaart wijzigen: klik op de groene knoppen met een zwart kruis om in te zoomen, op de groene knop met een streepje om uit te zoomen of op de groene pijlen voor aangrenzende kaarten.


METAR-TAF: